Millerville, AL (36267)

6:54 PM CDT on October 31, 2014 (GMT -0500)
Weathers | Change Station
CLOSE
Current Station
Personal Weather Station
Location: Talladega, AL
Elevation: 942 ft
Nearby Weather Stations

Elev 942 ft 33.32 °N, 85.96 °W | Updated 10 minutes ago

Overcast
Overcast
49.3 °F
Feels Like 47 °F
N
5.8
Wind Variable Wind from WNW

Today
High -- | Low -- °F
--% Chance of Precip.
Yesterday
High -- | Low -- °F
Precip. -- in
7:01 AM 5:53 PM
First Quarter, 60% visible
Pressure 29.96 in
Visibility 10.0 miles
Clouds Scattered Clouds 6500 ft
Scattered Clouds 7500 ft
Mostly Cloudy 9000 ft
Windchill 47 °F
Dew Point 48 °F
Humidity 96%
Rainfall 0.14 in
Snow Depth Not available.
UV 0 out of 12
Pollen 1.90 out of 12
Air Quality Not available.
Flu Activity Not available.
METAR KALX 312335Z AUTO 31004KT 10SM SCT065 SCT075 BKN090 15/06 A2996 RMK AO2 T01510060

More Conditions Fewer Conditions

Pressure 29.96 in
Visibility 10.0 miles
Clouds Scattered Clouds 6500 ft
Scattered Clouds 7500 ft
Mostly Cloudy 9000 ft
Windchill 47 °F
Dew Point 48 °F
Humidity 96%
Rainfall 0.14 in
Snow Depth Not available.
UV 0 out of 12
Pollen 1.90 out of 12
Air Quality Not available.
Flu Activity Not available.
METAR KALX 312335Z AUTO 31004KT 10SM SCT065 SCT075 BKN090 15/06 A2996 RMK AO2 T01510060

More Conditions Fewer Conditions

10-Day Weather Forecast

Almanac

Astronomy

Oct. 31, 2014 Rise Set
Actual Time
Civil Twilight
Nautical Twilight
Astronomical Twilight
Moon
Length of Visible Light
Length of Day
Tomorrow will be .
, % of the Moon is Illuminated

Today's Extremes

State Highs State Lows

Community

WunderPhotos

Upload Photos

1,766,786 photos uploaded!

WunderBlogs® & News

Nearby

Air Quality

  Air Quality AQ Index Pollutant
Not available.

Snow Depth

Station Depth Elevation

Earthquake Activity

City Distance Mag. Time & Date
Minimum magnitude displayed is 2.5.

Coastal Water Temperatures

Place Temperature

Nearby Weather Stations